createdAt,value
2019-04-23T00:05:08.283Z,33.70
2019-04-23T00:25:33.338Z,35.80
2019-04-23T00:45:16.640Z,35.16
2019-04-23T01:25:11.064Z,39.45
2019-04-23T01:45:31.380Z,40.73
2019-04-23T02:05:46.860Z,40.68
2019-04-23T02:25:50.837Z,38.76
2019-04-23T02:46:01.954Z,40.71
2019-04-23T03:06:14.903Z,44.15
2019-04-23T03:26:45.518Z,38.38
2019-04-23T03:46:29.593Z,62.22
2019-04-23T04:06:45.394Z,37.97
2019-04-23T04:26:46.762Z,44.04
2019-04-23T04:46:45.769Z,44.37
2019-04-23T05:26:55.089Z,40.74
2019-04-23T06:27:13.438Z,45.73
2019-04-23T07:07:43.084Z,26.45
2019-04-23T07:27:31.751Z,25.27
2019-04-23T07:47:40.195Z,23.41
2019-04-23T08:08:01.753Z,24.71
2019-04-23T08:28:10.288Z,23.97
2019-04-23T08:48:12.444Z,24.92
2019-04-23T09:28:27.551Z,27.78
2019-04-23T09:48:17.723Z,34.26
2019-04-23T10:08:19.349Z,33.33
2019-04-23T10:28:22.962Z,31.85
2019-04-23T10:49:33.463Z,31.17
2019-04-23T11:08:50.496Z,32.17
2019-04-23T11:28:45.110Z,28.59
2019-04-23T11:49:22.717Z,29.49
2019-04-23T12:09:25.374Z,30.27
2019-04-23T12:29:33.188Z,30.26
2019-04-23T12:49:58.400Z,28.58
2019-04-23T13:29:43.521Z,31.18
2019-04-23T14:10:24.536Z,29.19
2019-04-23T14:29:58.488Z,28.50
2019-04-23T14:50:27.976Z,28.95
2019-04-23T15:10:20.841Z,46.72
2019-04-23T15:50:27.192Z,31.41
2019-04-23T16:10:29.614Z,34.07
2019-04-23T16:51:00.945Z,34.75
2019-04-23T17:10:51.489Z,47.01
2019-04-23T17:31:01.545Z,44.86
2019-04-23T17:51:11.453Z,42.92
2019-04-23T18:31:20.161Z,42.44
2019-04-23T18:51:38.451Z,41.32
2019-04-23T19:31:55.265Z,43.42
2019-04-23T19:51:59.506Z,42.21
2019-04-23T20:12:06.368Z,46.45
2019-04-23T20:52:04.772Z,44.80
2019-04-23T21:12:43.201Z,43.12
2019-04-23T21:32:36.975Z,44.46
2019-04-23T21:52:46.370Z,45.22
2019-04-23T22:33:02.942Z,47.34
2019-04-23T22:53:09.019Z,46.44
2019-04-23T23:13:10.954Z,46.96
2019-04-23T23:33:17.537Z,50.55
